Time;durP1;ratioP1;P1;durP2;ratioP2;P2;SDS_P1;SDS_P2;PMS_P1;PMS_P2;Temp;Humidity;BMP_temperature;BMP_pressure;BME280_temperature;BME280_humidity;BME280_pressure;Samples;Min_cycle;Max_cycle;Signal;HPM_P1;HPM_P2
2023/08/19 00:03:18;;;;;;;13.30;12.10;;;;;;;19.54;81.19;98961.12;226739;1272;22533;-71
2023/08/19 00:08:21;;;;;;;12.90;11.70;;;;;;;19.50;81.25;98962.02;226759;1273;22527;-71
2023/08/19 00:13:22;;;;;;;13.40;12.00;;;;;;;19.48;81.46;98960.44;226828;1263;22601;-71
2023/08/19 00:18:24;;;;;;;12.80;11.10;;;;;;;19.45;81.83;98961.36;226729;1273;22527;-72
2023/08/19 00:23:26;;;;;;;12.50;11.10;;;;;;;19.43;81.91;98965.67;226743;1267;22518;-71
2023/08/19 00:28:28;;;;;;;13.90;12.60;;;;;;;19.40;81.88;98959.77;226660;1269;24754;-71
2023/08/19 00:33:30;;;;;;;14.00;12.70;;;;;;;19.31;81.79;98962.83;226883;1273;22653;-71
2023/08/19 00:38:32;;;;;;;15.10;13.20;;;;;;;19.18;81.67;98961.61;226926;1269;22576;-71
2023/08/19 00:43:36;;;;;;;14.30;12.80;;;;;;;19.06;82.04;98968.17;226743;1270;25024;-72
2023/08/19 00:48:39;;;;;;;14.10;12.70;;;;;;;18.96;82.31;98966.93;226804;1250;24241;-71
2023/08/19 00:53:41;;;;;;;14.30;12.80;;;;;;;18.91;82.59;98964.30;226735;1266;22633;-72
2023/08/19 00:58:45;;;;;;;14.70;13.20;;;;;;;18.87;83.01;98960.52;226769;1272;22540;-71
2023/08/19 01:03:48;;;;;;;15.00;13.50;;;;;;;18.84;83.14;98958.32;226928;1272;22531;-72
2023/08/19 01:09:00;;;;;;;15.00;13.40;;;;;;;18.82;83.34;98956.15;226874;1272;22541;-71
2023/08/19 01:14:36;;;;;;;14.90;13.50;;;;;;;18.79;83.36;98956.61;226695;1269;22556;-72
2023/08/19 01:19:41;;;;;;;13.40;12.20;;;;;;;18.75;83.21;98957.95;226742;1272;22641;-72
2023/08/19 01:24:46;;;;;;;15.70;14.10;;;;;;;18.68;83.22;98957.13;226664;1269;22544;-71
2023/08/19 01:29:48;;;;;;;17.80;14.60;;;;;;;18.59;83.25;98957.10;226857;1256;25343;-74
2023/08/19 01:34:51;;;;;;;15.90;14.30;;;;;;;18.54;83.63;98962.69;226574;1273;169306;-71
2023/08/19 01:39:55;;;;;;;16.50;15.00;;;;;;;18.47;83.64;98959.58;226750;1267;22526;-71
2023/08/19 01:44:58;;;;;;;16.60;15.00;;;;;;;18.43;84.06;98961.05;226764;1269;22534;-71
2023/08/19 01:50:00;;;;;;;15.30;13.90;;;;;;;18.41;84.17;98965.87;226683;1269;22536;-72
2023/08/19 01:55:02;;;;;;;16.20;14.50;;;;;;;18.39;84.19;98961.56;226727;1273;22601;-71
2023/08/19 02:00:05;;;;;;;16.00;14.40;;;;;;;18.36;84.20;98953.05;226759;1272;22526;-73
2023/08/19 02:05:15;;;;;;;16.10;14.50;;;;;;;18.34;84.44;98958.46;226868;1273;22541;-71
2023/08/19 02:10:17;;;;;;;17.00;15.20;;;;;;;18.32;84.56;98963.17;226901;1273;22575;-71
2023/08/19 02:15:19;;;;;;;17.20;15.40;;;;;;;18.32;84.87;98955.29;226748;1269;24180;-71
2023/08/19 02:20:21;;;;;;;15.50;14.00;;;;;;;18.31;84.96;98952.83;226839;1273;22527;-74
2023/08/19 02:25:23;;;;;;;16.00;13.90;;;;;;;18.31;85.06;98942.92;226890;1272;22544;-71
2023/08/19 02:30:25;;;;;;;17.30;15.50;;;;;;;18.28;84.80;98947.20;226786;1269;24841;-71
2023/08/19 02:35:27;;;;;;;19.00;17.00;;;;;;;18.25;84.88;98943.59;226733;1268;22581;-72
2023/08/19 02:40:30;;;;;;;17.90;16.00;;;;;;;18.24;84.93;98944.91;226757;1269;22557;-73
2023/08/19 02:45:35;;;;;;;17.60;15.80;;;;;;;18.21;85.06;98940.99;226766;1269;22532;-72
2023/08/19 02:50:37;;;;;;;17.50;15.60;;;;;;;18.19;85.08;98941.20;226798;1254;22535;-72
2023/08/19 02:55:42;;;;;;;17.30;15.60;;;;;;;18.17;85.30;98945.77;226835;1251;24877;-72
2023/08/19 03:00:46;;;;;;;17.40;15.60;;;;;;;18.15;85.35;98945.55;226699;1269;22585;-72
2023/08/19 03:05:48;;;;;;;17.00;15.30;;;;;;;18.14;85.33;98954.73;226785;1269;22546;-70
2023/08/19 03:10:50;;;;;;;19.10;17.10;;;;;;;18.14;85.60;98960.39;226732;1272;22529;-71
2023/08/19 03:15:57;;;;;;;18.30;16.50;;;;;;;18.11;85.50;98953.05;226768;1272;22543;-71
2023/08/19 03:21:00;;;;;;;17.10;15.40;;;;;;;18.08;85.48;98956.89;226727;1272;22527;-72
2023/08/19 03:26:02;;;;;;;17.60;15.80;;;;;;;18.04;85.62;98962.29;226760;1273;24187;-72
2023/08/19 03:31:09;;;;;;;16.70;15.00;;;;;;;18.07;86.17;98971.05;226656;1270;25246;-71
2023/08/19 03:36:11;;;;;;;18.60;16.50;;;;;;;18.11;86.20;98975.73;226855;1272;22561;-72
2023/08/19 03:41:13;;;;;;;16.80;14.90;;;;;;;18.13;86.22;98982.08;226812;1272;22670;-72
2023/08/19 03:46:15;;;;;;;17.50;15.70;;;;;;;18.12;86.18;98989.86;226783;1272;22531;-71
2023/08/19 03:51:17;;;;;;;19.50;17.50;;;;;;;18.11;86.09;98993.48;226727;1266;22540;-71
2023/08/19 03:56:18;;;;;;;17.90;16.10;;;;;;;18.10;86.16;98998.51;226732;1270;22534;-71
2023/08/19 04:01:20;;;;;;;17.40;15.30;;;;;;;18.10;86.25;98992.19;226720;1272;22546;-71
2023/08/19 04:06:23;;;;;;;16.20;14.50;;;;;;;18.09;86.05;98993.18;226828;1272;22575;-71
2023/08/19 04:11:25;;;;;;;17.60;15.50;;;;;;;18.08;86.05;98987.45;226693;1272;22526;-72
2023/08/19 04:16:26;;;;;;;18.10;16.30;;;;;;;18.11;86.32;98993.34;226764;1272;22623;-71
2023/08/19 04:21:28;;;;;;;17.10;15.50;;;;;;;18.19;86.50;98999.10;226702;1269;22546;-71
2023/08/19 04:26:31;;;;;;;18.20;16.30;;;;;;;18.29;86.57;99001.27;226678;1273;22534;-71
2023/08/19 04:31:33;;;;;;;17.80;16.00;;;;;;;18.41;86.71;98997.65;226849;1272;22538;-71
2023/08/19 04:36:37;;;;;;;18.20;16.50;;;;;;;18.52;86.61;99001.12;226892;1272;22530;-71
2023/08/19 04:41:39;;;;;;;19.80;17.70;;;;;;;18.66;86.60;99012.05;226753;1272;22541;-72
2023/08/19 04:46:42;;;;;;;19.70;17.80;;;;;;;18.81;86.70;99004.63;226800;1272;22531;-72
2023/08/19 04:51:44;;;;;;;20.60;18.40;;;;;;;18.98;86.75;98997.81;226790;1259;22538;-71
2023/08/19 04:56:46;;;;;;;21.70;19.40;;;;;;;19.13;86.69;99006.30;226862;1273;22544;-71
2023/08/19 05:01:49;;;;;;;20.50;18.40;;;;;;;19.28;86.80;99008.41;226690;1273;22531;-71
2023/08/19 05:06:51;;;;;;;21.80;19.50;;;;;;;19.44;86.75;99002.19;226817;1273;22543;-72
2023/08/19 05:11:53;;;;;;;21.50;19.20;;;;;;;19.61;86.72;99001.30;226858;1272;22514;-75
2023/08/19 05:16:55;;;;;;;22.40;20.10;;;;;;;19.76;86.45;98996.15;226879;1273;22526;-74
2023/08/19 05:21:57;;;;;;;21.20;19.10;;;;;;;19.94;86.39;98996.92;226834;1272;24255;-75
2023/08/19 05:27:00;;;;;;;20.60;18.50;;;;;;;20.12;86.23;98994.27;226716;1269;22537;-75
2023/08/19 05:32:02;;;;;;;21.70;18.90;;;;;;;20.28;86.05;98998.87;226678;1272;22534;-75
2023/08/19 05:37:06;;;;;;;22.00;19.70;;;;;;;20.46;85.74;99003.30;226752;1267;26044;-74
2023/08/19 05:42:09;;;;;;;22.00;19.50;;;;;;;20.60;85.48;99005.27;226756;1271;22543;-74
2023/08/19 05:47:11;;;;;;;23.40;20.20;;;;;;;20.77;85.50;99001.91;226699;1258;22522;-75
2023/08/19 05:52:13;;;;;;;25.30;19.00;;;;;;;20.96;85.16;99000.54;226691;1271;22646;-75
2023/08/19 05:57:14;;;;;;;21.40;19.10;;;;;;;21.16;84.94;99006.21;226869;1268;22532;-75
2023/08/19 06:02:16;;;;;;;20.30;18.10;;;;;;;21.32;84.55;99004.96;226671;1273;22514;-74
2023/08/19 06:07:25;;;;;;;18.80;16.90;;;;;;;21.54;84.46;99007.52;226729;1272;22530;-75
2023/08/19 06:12:27;;;;;;;18.90;16.90;;;;;;;21.71;83.89;99016.72;226803;1272;22550;-75
2023/08/19 06:17:30;;;;;;;19.20;17.30;;;;;;;21.84;83.09;99017.97;226649;1272;22558;-75
2023/08/19 06:22:33;;;;;;;19.80;17.30;;;;;;;21.98;83.11;99019.95;226712;1272;22562;-76
2023/08/19 06:27:35;;;;;;;19.70;17.60;;;;;;;22.18;82.77;99029.27;226818;1273;25352;-75
2023/08/19 06:32:37;;;;;;;20.10;18.10;;;;;;;22.34;82.52;99029.34;226740;1272;22544;-74
2023/08/19 06:37:46;;;;;;;20.50;18.40;;;;;;;22.53;82.26;99026.40;226730;1273;22647;-75
2023/08/19 06:42:49;;;;;;;19.50;17.60;;;;;;;22.73;82.02;99028.10;226715;1272;22534;-75
2023/08/19 06:47:53;;;;;;;19.30;17.50;;;;;;;22.90;81.34;99030.90;226704;1272;22516;-75
2023/08/19 06:52:56;;;;;;;19.30;17.40;;;;;;;23.04;80.90;99029.52;226758;1273;22531;-75
2023/08/19 06:58:03;;;;;;;17.70;15.90;;;;;;;23.26;80.68;99036.73;226654;1273;22524;-75
2023/08/19 07:03:06;;;;;;;16.60;14.80;;;;;;;23.45;80.10;99043.97;226775;1269;22881;-76
2023/08/19 07:08:10;;;;;;;16.30;13.90;;;;;;;23.60;79.46;99044.09;226611;1269;23134;-76
2023/08/19 07:13:12;;;;;;;16.60;14.80;;;;;;;23.77;79.29;99048.94;226614;1272;22524;-75
2023/08/19 07:18:19;;;;;;;15.20;13.70;;;;;;;23.99;79.21;99058.67;226654;1263;22541;-76
2023/08/19 07:23:24;;;;;;;16.00;14.50;;;;;;;24.21;78.45;99059.52;226610;1272;22721;-76
2023/08/19 07:28:29;;;;;;;15.50;14.10;;;;;;;24.36;78.00;99066.98;226725;1273;22554;-76
2023/08/19 07:33:31;;;;;;;36.50;16.80;;;;;;;24.52;77.58;99065.85;226643;1272;22617;-77
2023/08/19 07:38:33;;;;;;;15.80;14.30;;;;;;;24.73;77.48;99069.60;226731;1256;22553;-76
2023/08/19 07:43:34;;;;;;;16.90;15.40;;;;;;;24.93;77.36;99066.10;226749;1272;22619;-76
2023/08/19 07:48:36;;;;;;;16.90;15.20;;;;;;;25.19;77.30;99069.27;226611;1272;22526;-76
2023/08/19 07:53:39;;;;;;;17.70;15.70;;;;;;;25.45;77.23;99075.67;226545;1273;23037;-76
2023/08/19 07:58:40;;;;;;;17.40;15.60;;;;;;;25.71;76.81;99076.44;226601;1273;22544;-74
2023/08/19 08:03:42;;;;;;;17.60;16.00;;;;;;;25.84;75.52;99080.62;226547;1273;24222;-75
2023/08/19 08:08:44;;;;;;;19.60;16.90;;;;;;;26.00;75.74;99084.48;226582;1266;22703;-75
2023/08/19 08:13:46;;;;;;;18.10;16.50;;;;;;;26.22;75.37;99081.56;226661;1273;22530;-75
2023/08/19 08:18:48;;;;;;;18.10;16.50;;;;;;;26.40;74.69;99078.80;226596;1272;22526;-74
2023/08/19 08:23:50;;;;;;;16.50;15.00;;;;;;;26.53;74.28;99083.34;226515;1270;22535;-75
2023/08/19 08:28:52;;;;;;;15.90;14.50;;;;;;;26.67;73.54;99088.42;226572;1273;22530;-75
2023/08/19 08:33:54;;;;;;;15.80;14.50;;;;;;;26.86;73.34;99089.15;226620;1273;24193;-75
2023/08/19 08:38:55;;;;;;;16.90;15.40;;;;;;;26.99;72.49;99087.25;226602;1269;26262;-74
2023/08/19 08:43:59;;;;;;;14.50;13.10;;;;;;;27.11;72.12;99092.06;226725;1269;22546;-74
2023/08/19 08:49:03;;;;;;;15.60;14.00;;;;;;;27.17;71.14;99095.31;226829;1273;26246;-75
2023/08/19 08:54:09;;;;;;;14.50;13.30;;;;;;;27.30;71.20;99091.13;226740;1273;22598;-75
2023/08/19 08:59:11;;;;;;;14.90;13.60;;;;;;;27.48;71.28;99087.70;226607;1251;22562;-74
2023/08/19 09:04:15;;;;;;;13.40;12.30;;;;;;;27.68;70.54;99089.04;226662;1269;22535;-74
2023/08/19 09:09:19;;;;;;;14.30;12.90;;;;;;;27.84;69.63;99089.48;226757;1272;22537;-75
2023/08/19 09:14:43;;;;;;;15.30;13.70;;;;;;;27.98;69.06;99093.62;226740;1273;22583;-75
2023/08/19 09:19:45;;;;;;;14.60;13.40;;;;;;;28.14;68.88;99092.48;226794;1271;22558;-74
2023/08/19 09:24:48;;;;;;;13.50;12.40;;;;;;;28.28;68.25;99091.63;226738;1263;25335;-73
2023/08/19 09:29:51;;;;;;;14.10;12.90;;;;;;;28.41;67.46;99085.75;226691;1273;22545;-76
2023/08/19 09:35:08;;;;;;;13.30;12.20;;;;;;;28.48;67.12;99087.48;226747;1273;22540;-74
2023/08/19 09:40:13;;;;;;;13.10;11.80;;;;;;;28.51;66.29;99083.52;226703;1274;22526;-75
2023/08/19 09:45:18;;;;;;;12.00;11.10;;;;;;;28.62;66.04;99074.40;226669;1272;22564;-74
2023/08/19 09:50:22;;;;;;;11.20;10.30;;;;;;;28.82;66.04;99076.68;226710;1272;25207;-74
2023/08/19 09:55:27;;;;;;;11.00;10.10;;;;;;;29.01;65.03;99075.14;226831;1274;22533;-73
2023/08/19 10:00:29;;;;;;;11.00;10.00;;;;;;;29.22;64.68;99070.84;226830;1274;22551;-74
2023/08/19 10:05:34;;;;;;;12.20;10.70;;;;;;;29.45;63.95;99075.57;226632;1273;23012;-74
2023/08/19 10:10:39;;;;;;;11.90;10.80;;;;;;;29.65;63.67;99075.64;226632;1270;22822;-74
2023/08/19 10:15:43;;;;;;;12.30;11.20;;;;;;;29.76;63.52;99075.59;226567;1263;22577;-74
2023/08/19 10:20:54;;;;;;;11.00;9.90;;;;;;;29.96;62.99;99071.95;226527;1273;22547;-74
2023/08/19 10:25:56;;;;;;;10.70;9.90;;;;;;;30.14;61.90;99066.13;226596;1273;22543;-75
2023/08/19 10:31:05;;;;;;;11.20;10.30;;;;;;;30.33;61.95;99075.98;226626;1273;25015;-75
2023/08/19 10:36:09;;;;;;;10.40;9.60;;;;;;;30.53;61.76;99075.15;226576;1273;22534;-75
2023/08/19 10:41:35;;;;;;;11.90;10.80;;;;;;;30.67;60.79;99074.09;226632;1270;22520;-74
2023/08/19 10:46:47;;;;;;;9.20;8.40;;;;;;;30.70;59.68;99077.96;226599;1270;22657;-75
2023/08/19 10:51:53;;;;;;;9.80;9.00;;;;;;;30.72;58.40;99077.44;226626;1272;22604;-75
2023/08/19 10:57:12;;;;;;;12.40;11.20;;;;;;;30.80;58.41;99069.05;226582;1275;22546;-74
2023/08/19 11:02:15;;;;;;;11.00;10.00;;;;;;;30.89;57.84;99064.85;226685;1273;24258;-81
2023/08/19 11:07:18;;;;;;;10.50;9.60;;;;;;;30.91;57.51;99058.56;226573;1267;22549;-74
2023/08/19 11:12:23;;;;;;;11.20;10.30;;;;;;;31.12;57.92;99055.36;226543;1273;22537;-75
2023/08/19 11:17:30;;;;;;;11.80;10.80;;;;;;;31.38;57.33;99052.01;226745;1273;24259;-75
2023/08/19 11:22:42;;;;;;;11.50;10.70;;;;;;;31.48;57.09;99043.11;226804;1272;22548;-75
2023/08/19 11:27:45;;;;;;;11.00;10.20;;;;;;;31.48;56.06;99040.93;226713;1273;25453;-74
2023/08/19 11:32:47;;;;;;;11.80;10.70;;;;;;;31.45;56.01;99039.39;226739;1273;22519;-74
2023/08/19 11:37:49;;;;;;;11.40;10.50;;;;;;;31.60;56.06;99038.98;226822;1273;22542;-75
2023/08/19 11:42:51;;;;;;;11.50;10.50;;;;;;;31.56;55.23;99035.61;226684;1273;25089;-74
2023/08/19 11:47:53;;;;;;;12.60;11.50;;;;;;;31.51;55.29;99033.95;226712;1273;22521;-74
2023/08/19 11:52:55;;;;;;;11.60;10.50;;;;;;;31.60;55.48;99029.60;226751;1273;22534;-75
2023/08/19 11:57:57;;;;;;;12.00;10.90;;;;;;;31.72;55.54;99029.00;226804;1273;22538;-75
2023/08/19 12:03:01;;;;;;;11.90;10.90;;;;;;;31.74;55.18;99036.25;226788;1273;22538;-75
2023/08/19 12:08:03;;;;;;;11.90;11.00;;;;;;;31.73;54.77;99033.38;226775;1273;22533;-74
2023/08/19 12:13:05;;;;;;;11.50;10.40;;;;;;;31.67;54.44;99033.32;226767;1273;22530;-75
2023/08/19 12:18:17;;;;;;;11.00;10.00;;;;;;;31.48;54.14;99023.84;226787;1273;22537;-74
2023/08/19 12:23:19;;;;;;;11.10;10.10;;;;;;;31.19;54.44;99026.77;226714;1267;22567;-74
2023/08/19 12:28:23;;;;;;;11.10;10.10;;;;;;;31.02;54.64;99031.92;226667;1272;22549;-75
2023/08/19 12:33:25;;;;;;;11.20;10.10;;;;;;;30.88;54.83;99026.64;226717;1273;24199;-75
2023/08/19 12:38:27;;;;;;;10.90;10.00;;;;;;;31.01;55.41;99021.27;226781;1269;22528;-74
2023/08/19 12:43:29;;;;;;;10.90;9.90;;;;;;;31.17;54.88;99019.85;226712;1271;22647;-74
2023/08/19 12:48:32;;;;;;;10.90;10.00;;;;;;;31.19;54.50;99014.75;226708;1265;22592;-73
2023/08/19 12:53:34;;;;;;;9.80;9.10;;;;;;;31.30;54.71;99004.49;226768;1273;22546;-74
2023/08/19 12:58:36;;;;;;;9.70;9.00;;;;;;;31.43;54.01;99003.50;226739;1273;22533;-74
2023/08/19 13:03:38;;;;;;;10.10;9.40;;;;;;;31.59;53.85;99011.21;226685;1273;22544;-74
2023/08/19 13:08:41;;;;;;;9.30;8.60;;;;;;;31.65;53.34;99014.41;226704;1270;25214;-74
2023/08/19 13:13:43;;;;;;;9.20;8.50;;;;;;;31.65;53.33;99016.12;226776;1272;22663;-74
2023/08/19 13:18:45;;;;;;;9.80;8.80;;;;;;;31.74;53.10;99017.27;226808;1273;22537;-74
2023/08/19 13:23:47;;;;;;;9.00;8.40;;;;;;;31.82;52.74;99018.06;226686;1270;22584;-75
2023/08/19 13:28:49;;;;;;;8.70;7.90;;;;;;;31.84;52.81;99015.97;226725;1260;22538;-74
2023/08/19 13:33:51;;;;;;;9.00;8.30;;;;;;;31.94;52.51;99015.96;226565;1273;346674;-75
2023/08/19 13:38:55;;;;;;;9.00;8.30;;;;;;;31.98;52.19;99022.27;226790;1260;24202;-75
2023/08/19 13:43:58;;;;;;;8.70;8.00;;;;;;;31.88;51.58;99023.90;226761;1273;22582;-74
2023/08/19 13:49:00;;;;;;;9.40;8.60;;;;;;;31.89;51.63;99021.13;226784;1270;22541;-74
2023/08/19 13:54:03;;;;;;;8.70;8.00;;;;;;;32.03;52.22;99019.08;226681;1273;22549;-74
2023/08/19 13:59:05;;;;;;;8.70;8.00;;;;;;;32.05;51.71;99017.09;226527;1273;22552;-75
2023/08/19 14:04:07;;;;;;;9.10;8.40;;;;;;;32.00;51.89;99018.57;226671;1273;22628;-75
2023/08/19 14:09:09;;;;;;;8.90;8.20;;;;;;;32.15;51.94;99008.14;226734;1270;22535;-76
2023/08/19 14:14:11;;;;;;;8.90;8.30;;;;;;;32.20;51.36;99003.05;226503;1270;22536;-74
2023/08/19 14:19:13;;;;;;;8.90;8.10;;;;;;;31.93;50.99;98998.02;226657;1273;22521;-74
2023/08/19 14:24:15;;;;;;;9.10;8.40;;;;;;;31.77;51.08;98987.06;226702;1267;24312;-74
2023/08/19 14:29:17;;;;;;;11.00;7.80;;;;;;;31.69;51.22;98981.67;226789;1267;23872;-74
2023/08/19 14:34:19;;;;;;;8.90;8.20;;;;;;;31.70;51.53;98978.43;226787;1271;22547;-74
2023/08/19 14:39:21;;;;;;;8.70;7.90;;;;;;;31.67;51.24;98982.02;226807;1273;23258;-75
2023/08/19 14:44:23;;;;;;;8.50;8.00;;;;;;;31.67;51.69;98979.58;226819;1267;22531;-75
2023/08/19 14:49:25;;;;;;;8.70;8.10;;;;;;;31.70;51.12;98974.89;226687;1273;22534;-75
2023/08/19 14:54:27;;;;;;;8.70;8.10;;;;;;;31.69;50.96;98969.73;226739;1258;22546;-73
2023/08/19 14:59:30;;;;;;;9.30;8.50;;;;;;;31.66;50.75;98967.98;226731;1273;25246;-74
2023/08/19 15:04:32;;;;;;;8.90;8.30;;;;;;;31.67;51.19;98972.25;226847;1270;22539;-74
2023/08/19 15:09:34;;;;;;;9.90;9.10;;;;;;;31.65;50.78;98978.58;226785;1273;22530;-74
2023/08/19 15:14:36;;;;;;;9.30;8.50;;;;;;;31.63;51.26;98978.55;226725;1273;22573;-74
2023/08/19 15:19:37;;;;;;;10.00;9.10;;;;;;;31.63;51.37;98974.79;226779;1273;22553;-74
2023/08/19 15:24:40;;;;;;;9.00;8.20;;;;;;;31.61;50.85;98970.71;226666;1267;22540;-75
2023/08/19 15:29:42;;;;;;;9.50;8.70;;;;;;;31.53;50.94;98969.48;226765;1273;22538;-74
2023/08/19 15:34:44;;;;;;;8.70;8.00;;;;;;;31.46;50.80;98968.02;226729;1273;22545;-75
2023/08/19 15:39:45;;;;;;;9.90;9.10;;;;;;;31.45;51.12;98969.59;226774;1273;22633;-74
2023/08/19 15:44:47;;;;;;;9.60;8.90;;;;;;;31.52;51.21;98968.27;226671;1270;22554;-74
2023/08/19 15:49:50;;;;;;;8.80;8.20;;;;;;;31.54;50.88;98967.50;226831;1273;24222;-75
2023/08/19 15:54:52;;;;;;;9.90;9.10;;;;;;;31.47;50.51;98967.11;226692;1269;23770;-74
2023/08/19 15:59:54;;;;;;;9.80;9.00;;;;;;;31.41;51.09;98974.24;226724;1273;22637;-75
2023/08/19 16:04:57;;;;;;;10.00;9.20;;;;;;;31.39;51.16;98972.89;226892;1270;22585;-74
2023/08/19 16:09:59;;;;;;;10.50;9.70;;;;;;;31.29;51.54;98976.90;226722;1273;22525;-75
2023/08/19 16:15:03;;;;;;;10.10;9.30;;;;;;;31.16;51.93;98977.52;226694;1272;22546;-75
2023/08/19 16:20:05;;;;;;;10.90;9.80;;;;;;;30.97;52.08;98980.66;226794;1266;22575;-75
2023/08/19 16:25:07;;;;;;;10.10;9.40;;;;;;;30.81;52.49;98985.11;226882;1272;23253;-75
2023/08/19 16:30:11;;;;;;;10.60;9.70;;;;;;;30.69;52.82;98983.20;226746;1272;25325;-75
2023/08/19 16:35:14;;;;;;;10.40;9.60;;;;;;;30.58;53.21;98988.80;226718;1270;22571;-75
2023/08/19 16:40:16;;;;;;;10.50;9.70;;;;;;;30.43;53.49;98989.31;226677;1267;22543;-75
2023/08/19 16:45:18;;;;;;;10.90;9.90;;;;;;;30.29;53.69;98998.19;226756;1268;25491;-75
2023/08/19 16:50:19;;;;;;;11.70;10.70;;;;;;;30.12;53.73;98997.00;226686;1273;22552;-74
2023/08/19 16:55:21;;;;;;;11.30;10.40;;;;;;;29.95;54.22;99002.30;226686;1270;22565;-75
2023/08/19 17:00:23;;;;;;;11.00;10.10;;;;;;;29.78;54.64;99006.70;226892;1270;22534;-74
2023/08/19 17:05:25;;;;;;;10.90;10.00;;;;;;;29.60;55.11;99004.65;226701;1263;24393;-74
2023/08/19 17:10:27;;;;;;;10.90;10.10;;;;;;;29.43;55.33;99003.78;226709;1269;22537;-74
2023/08/19 17:15:29;;;;;;;11.40;10.50;;;;;;;29.28;55.71;99006.63;226722;1269;22587;-75
2023/08/19 17:20:31;;;;;;;11.50;10.60;;;;;;;29.12;56.02;99005.73;226725;1273;22541;-75
2023/08/19 17:25:33;;;;;;;11.00;10.20;;;;;;;28.95;56.36;99007.16;226687;1270;23415;-76
2023/08/19 17:30:35;;;;;;;11.60;10.60;;;;;;;28.74;56.50;99010.45;226693;1273;22541;-76
2023/08/19 17:35:38;;;;;;;12.30;11.30;;;;;;;28.49;57.28;99013.39;226701;1273;22513;-76
2023/08/19 17:40:41;;;;;;;12.80;11.60;;;;;;;28.27;57.60;99014.66;226740;1273;22535;-74
2023/08/19 17:45:44;;;;;;;13.50;12.40;;;;;;;28.08;58.14;99026.42;226820;1272;22541;-74
2023/08/19 17:50:46;;;;;;;14.70;13.40;;;;;;;27.87;58.88;99027.55;226755;1273;22534;-75
2023/08/19 17:55:55;;;;;;;13.90;12.50;;;;;;;27.66;59.53;99031.63;226744;1270;22553;-75
2023/08/19 18:00:59;;;;;;;15.40;12.70;;;;;;;27.42;59.85;99038.00;226661;1270;23425;-75
2023/08/19 18:06:02;;;;;;;14.40;13.00;;;;;;;27.18;60.35;99036.41;226766;1269;22540;-75
2023/08/19 18:11:06;;;;;;;16.40;14.10;;;;;;;26.96;60.73;99043.76;226806;1273;25204;-75
2023/08/19 18:16:10;;;;;;;15.60;13.40;;;;;;;26.76;61.33;99053.73;226752;1270;22538;-75
2023/08/19 18:21:12;;;;;;;16.90;14.40;;;;;;;26.55;61.96;99058.28;226756;1269;22546;-75
2023/08/19 18:26:17;;;;;;;16.60;15.00;;;;;;;26.34;62.62;99068.05;226771;1270;22578;-74
2023/08/19 18:31:19;;;;;;;17.10;15.60;;;;;;;26.12;63.28;99071.45;226705;1273;22533;-74
2023/08/19 18:36:21;;;;;;;17.70;15.90;;;;;;;25.95;63.89;99072.71;226734;1273;22521;-75
2023/08/19 18:41:23;;;;;;;17.50;15.90;;;;;;;25.79;64.21;99073.58;226737;1273;22533;-74
2023/08/19 18:46:33;;;;;;;18.80;17.00;;;;;;;25.65;64.60;99078.52;226691;1270;22537;-75
2023/08/19 18:51:49;;;;;;;18.10;16.40;;;;;;;25.52;65.21;99087.77;226809;1269;22534;-75
2023/08/19 18:56:51;;;;;;;18.40;16.70;;;;;;;25.41;65.52;99088.02;226679;1272;22556;-75
2023/08/19 19:01:56;;;;;;;16.60;15.20;;;;;;;25.29;66.18;99086.88;226709;1270;22514;-75
2023/08/19 19:06:58;;;;;;;17.70;16.10;;;;;;;25.19;66.50;99086.55;226693;1272;25239;-74
2023/08/19 19:12:00;;;;;;;19.50;17.50;;;;;;;25.10;66.73;99087.21;226666;1270;22537;-75
2023/08/19 19:17:02;;;;;;;20.10;18.00;;;;;;;25.01;66.99;99091.68;226733;1272;22533;-75
2023/08/19 19:22:04;;;;;;;20.10;18.10;;;;;;;24.89;67.28;99094.06;226836;1273;22545;-75
2023/08/19 19:27:07;;;;;;;19.60;17.80;;;;;;;24.77;67.46;99091.92;226835;1273;22551;-74
2023/08/19 19:32:08;;;;;;;21.30;17.80;;;;;;;24.65;67.67;99089.77;226819;1272;22603;-75
2023/08/19 19:37:11;;;;;;;20.00;17.80;;;;;;;24.54;68.08;99089.30;226777;1269;22554;-73
2023/08/19 19:42:26;;;;;;;25.90;23.30;;;;;;;24.44;68.45;99092.64;226885;1273;23675;-74
2023/08/19 19:47:28;;;;;;;19.00;17.20;;;;;;;24.37;68.97;99094.27;226703;1273;22537;-74
2023/08/19 19:52:30;;;;;;;17.70;16.10;;;;;;;24.29;69.59;99100.11;226785;1267;24367;-74
2023/08/19 19:57:32;;;;;;;17.90;16.20;;;;;;;24.21;69.84;99100.67;226643;1273;22635;-74
2023/08/19 20:02:35;;;;;;;19.80;17.30;;;;;;;24.12;70.06;99101.03;226752;1270;22635;-74
2023/08/19 20:07:55;;;;;;;21.50;19.40;;;;;;;24.03;70.46;99103.07;226886;1272;25325;-74
2023/08/19 20:13:09;;;;;;;23.00;20.70;;;;;;;23.93;71.07;99100.08;226736;1269;22947;-74
2023/08/19 20:18:16;;;;;;;23.90;21.70;;;;;;;23.85;71.72;99105.63;226736;1273;23089;-74
2023/08/19 20:23:18;;;;;;;23.80;21.60;;;;;;;23.77;72.06;99109.42;226789;1272;22663;-75
2023/08/19 20:28:20;;;;;;;24.30;21.90;;;;;;;23.67;72.79;99110.00;226765;1272;22533;-74
2023/08/19 20:33:22;;;;;;;25.20;22.60;;;;;;;23.58;73.01;99118.06;226775;1266;25225;-75
2023/08/19 20:38:24;;;;;;;24.90;22.60;;;;;;;23.48;73.40;99117.61;226738;1273;22521;-74
2023/08/19 20:43:26;;;;;;;24.20;21.80;;;;;;;23.38;73.85;99115.24;226714;1270;22537;-74
2023/08/19 20:48:28;;;;;;;25.80;23.30;;;;;;;23.29;74.33;99116.66;226772;1270;25299;-74
2023/08/19 20:53:30;;;;;;;26.70;24.40;;;;;;;23.20;74.75;99115.22;226817;1269;22573;-75
2023/08/19 20:58:38;;;;;;;26.80;24.20;;;;;;;23.11;75.26;99115.39;226787;1268;22549;-75
2023/08/19 21:03:41;;;;;;;25.20;22.90;;;;;;;23.02;75.73;99116.99;226866;1269;22532;-74
2023/08/19 21:08:42;;;;;;;23.40;21.30;;;;;;;22.94;76.13;99120.24;226888;1272;22535;-74
2023/08/19 21:13:55;;;;;;;24.10;21.80;;;;;;;22.88;76.24;99119.48;226928;1273;22919;-73
2023/08/19 21:19:17;;;;;;;23.30;21.30;;;;;;;22.82;76.74;99117.33;226785;1273;22580;-74
2023/08/19 21:24:34;;;;;;;22.90;20.90;;;;;;;22.76;76.89;99124.10;226734;1273;22570;-75
2023/08/19 21:29:48;;;;;;;23.40;21.30;;;;;;;22.70;77.09;99125.59;226873;1273;22693;-74
2023/08/19 21:35:02;;;;;;;24.40;22.10;;;;;;;22.65;77.36;99127.39;226736;1273;22549;-75
2023/08/19 21:40:06;;;;;;;24.00;21.50;;;;;;;22.61;77.40;99130.42;226880;1271;22541;-74
2023/08/19 21:45:09;;;;;;;24.70;22.40;;;;;;;22.57;77.70;99130.17;226821;1266;23480;-74
2023/08/19 21:50:11;;;;;;;128.30;115.30;;;;;;;22.52;77.76;99128.76;226798;1269;22539;-74
2023/08/19 21:55:13;;;;;;;30.90;27.80;;;;;;;22.48;78.03;99131.40;226737;1272;22530;-75
2023/08/19 22:00:16;;;;;;;25.20;22.60;;;;;;;22.43;78.22;99129.63;226785;1271;24864;-75
2023/08/19 22:05:18;;;;;;;23.70;21.40;;;;;;;22.38;78.22;99132.83;226750;1269;22461;-75
2023/08/19 22:10:20;;;;;;;23.80;21.60;;;;;;;22.33;78.40;99129.08;226713;1266;25266;-74
2023/08/19 22:15:22;;;;;;;23.40;21.20;;;;;;;22.29;78.46;99132.09;226713;1272;22526;-75
2023/08/19 22:20:24;;;;;;;23.60;21.30;;;;;;;22.24;78.53;99130.81;226727;1272;22537;-75
2023/08/19 22:25:29;;;;;;;23.70;21.40;;;;;;;22.19;78.65;99131.26;226710;1260;22559;-75
2023/08/19 22:30:32;;;;;;;24.00;21.70;;;;;;;22.14;78.76;99133.67;226743;1270;22553;-74
2023/08/19 22:35:34;;;;;;;24.90;22.50;;;;;;;22.08;78.90;99135.20;226723;1272;22524;-74
2023/08/19 22:40:37;;;;;;;27.70;25.00;;;;;;;22.02;78.92;99133.64;226753;1271;22527;-74
2023/08/19 22:45:39;;;;;;;25.90;23.50;;;;;;;21.95;78.99;99135.23;226894;1270;22530;-75
2023/08/19 22:50:42;;;;;;;24.00;21.80;;;;;;;21.88;79.12;99134.34;226744;1269;22545;-75
2023/08/19 22:55:48;;;;;;;24.40;22.00;;;;;;;21.81;79.30;99131.48;226746;1272;22541;-74
2023/08/19 23:00:53;;;;;;;25.00;22.50;;;;;;;21.74;79.38;99125.38;226898;1273;22592;-74
2023/08/19 23:05:59;;;;;;;24.20;21.90;;;;;;;21.68;79.68;99123.30;226729;1273;22547;-74